Portada
METAR-TAF:

METAR-TAF

Aeropuertos :

Lamerd, Irán

latitud: 27-22-22N, longitud: 53-11-20E, altitud: 408 m

Observación

El informe se hizo hace 51 minutos, a las 13:00 UTC
Viento 12 kt del este
Temperatura 22°C
Humedad 60%
Presión 1014 hPa
Visibilidad 10 km o más
Escasas nubes a una altura de 3000 ft, Cumulonimbus.
Nubes dispersas a una altura de 4000 ft
Cielo nuboso a una altura de 9000 ft

METAR: OISR 281300Z 10012KT 9999 FEW030CB SCT040 BKN090 22/14 Q1013 A2993

Hora: 18:21 (13:51 UTC)


TAF: falta

Observaciones y pronósticos meteorológicos de más de 4000 aeropuertos (mensajes METAR y TAF).

Los puntos amarillos y rojos representan las estaciones disponibles.

Ponga el ratón en el punto deseado para ver el nombre de la estación.

Haga clic para ver las observaciones y los pronósticos meteorológicos.

Para cambiar el mapa : haga clic en los botones verdes con una cruz de color negro para hacer un zoom, en el botón verde con un guión para alejar o en las flechas verdes para mapas adyacentes.


METAR-TAF: